createdAt,value
2022-12-10T00:00:19.443Z,99815.44
2022-12-10T00:02:49.994Z,99816.72
2022-12-10T00:05:18.684Z,99818.13
2022-12-10T00:07:47.074Z,99822.13
2022-12-10T00:10:16.129Z,99811.28
2022-12-10T00:12:44.953Z,99819.41
2022-12-10T00:15:13.562Z,99821.03
2022-12-10T00:17:42.965Z,99820.88
2022-12-10T00:20:14.592Z,99818.81
2022-12-10T00:22:43.135Z,99826.78
2022-12-10T00:25:11.539Z,99828.72
2022-12-10T00:27:40.576Z,99823.91
2022-12-10T00:30:10.743Z,99826.47
2022-12-10T00:32:39.347Z,99823.78
2022-12-10T00:35:08.767Z,99836.34
2022-12-10T00:37:39.158Z,99835.56
2022-12-10T00:40:09.221Z,99824.56
2022-12-10T00:42:37.801Z,99841.34
2022-12-10T00:45:07.039Z,99843.56
2022-12-10T00:47:35.663Z,99837.84
2022-12-10T00:50:04.302Z,99841.34
2022-12-10T00:52:34.847Z,99845.66
2022-12-10T00:55:06.015Z,99849.97
2022-12-10T00:57:34.480Z,99854.28
2022-12-10T01:00:02.986Z,99849.78
2022-12-10T01:02:31.471Z,99850.44
2022-12-10T01:04:59.913Z,99852.81
2022-12-10T01:07:28.277Z,99850.28
2022-12-10T01:09:56.719Z,99853.94
2022-12-10T01:12:27.089Z,99856.19
2022-12-10T01:14:56.669Z,99847.88
2022-12-10T01:17:25.040Z,99855.22
2022-12-10T01:19:53.494Z,99849.03
2022-12-10T01:22:21.831Z,99855.53
2022-12-10T01:24:50.436Z,99858.44
2022-12-10T01:27:18.786Z,99859.56
2022-12-10T01:29:49.200Z,99859.41
2022-12-10T01:32:17.517Z,99861.59
2022-12-10T01:34:46.052Z,99874.75
2022-12-10T01:37:14.502Z,99865.78
2022-12-10T01:39:42.825Z,99874.09
2022-12-10T01:42:15.529Z,99873.00
2022-12-10T01:45:04.735Z,99881.75
2022-12-10T01:47:33.763Z,99874.41
2022-12-10T01:50:02.928Z,99875.53
2022-12-10T01:52:31.485Z,99882.72
2022-12-10T01:54:59.972Z,99868.97
2022-12-10T01:57:30.604Z,99879.50
2022-12-10T02:00:03.557Z,99880.47
2022-12-10T02:02:49.520Z,99879.19
2022-12-10T02:05:27.546Z,99872.47
2022-12-10T02:08:08.015Z,99871.69
2022-12-10T02:10:45.797Z,99879.63
2022-12-10T02:13:21.318Z,99872.94
2022-12-10T02:15:55.029Z,99881.25
2022-12-10T02:18:29.079Z,99882.88
2022-12-10T02:21:02.016Z,99866.56
2022-12-10T02:23:37.611Z,99863.53
2022-12-10T02:26:13.811Z,99863.03
2022-12-10T02:28:49.745Z,99863.22
2022-12-10T02:31:24.395Z,99871.06
2022-12-10T02:33:58.139Z,99859.38
2022-12-10T02:36:29.758Z,99853.28
2022-12-10T02:39:00.364Z,99853.16
2022-12-10T02:41:36.031Z,99856.03
2022-12-10T02:44:08.584Z,99861.16
2022-12-10T02:46:40.849Z,99856.31
2022-12-10T02:49:11.700Z,99859.38
2022-12-10T02:51:40.109Z,99856.97
2022-12-10T02:54:29.710Z,99863.88
2022-12-10T02:57:02.609Z,99862.25
2022-12-10T02:59:44.300Z,99855.56
2022-12-10T03:02:19.997Z,99857.91
2022-12-10T03:04:55.584Z,99865.44
2022-12-10T03:07:30.706Z,99854.44
2022-12-10T03:10:04.652Z,99858.13
2022-12-10T03:12:38.040Z,99843.75
2022-12-10T03:15:11.858Z,99864.97
2022-12-10T03:17:45.695Z,99854.94
2022-12-10T03:20:16.067Z,99867.03
2022-12-10T03:22:47.545Z,99864.81
2022-12-10T03:25:20.044Z,99864.66
2022-12-10T03:27:52.180Z,99868.78
2022-12-10T03:30:20.845Z,99864.81
2022-12-10T03:32:51.780Z,99867.38
2022-12-10T03:35:23.255Z,99861.59
2022-12-10T03:37:52.736Z,99867.38
2022-12-10T03:40:25.518Z,99859.72
2022-12-10T03:42:53.903Z,99859.88
2022-12-10T03:45:22.319Z,99862.72
2022-12-10T03:47:52.946Z,99863.69
2022-12-10T03:50:21.399Z,99854.13
2022-12-10T03:52:49.681Z,99843.09
2022-12-10T03:55:18.277Z,99851.25
2022-12-10T03:57:46.579Z,99859.56
2022-12-10T04:00:15.736Z,99860.66
2022-12-10T04:02:44.182Z,99860.66
2022-12-10T04:05:14.513Z,99857.47
2022-12-10T04:07:42.997Z,99858.25
2022-12-10T04:10:11.790Z,99845.66
2022-12-10T04:12:40.189Z,99862.25
2022-12-10T04:15:23.476Z,99861.47
2022-12-10T04:17:52.964Z,99864.19
2022-12-10T04:20:36.289Z,99868.81
2022-12-10T04:23:17.951Z,99878.41
2022-12-10T04:25:59.564Z,99872.03
2022-12-10T04:28:28.680Z,99869.31
2022-12-10T04:30:57.079Z,99876.03
2022-12-10T04:33:25.619Z,99878.56
2022-12-10T04:35:55.811Z,99881.13
2022-12-10T04:38:24.362Z,99879.38
2022-12-10T04:40:52.695Z,99876.47
2022-12-10T04:43:21.357Z,99889.47
2022-12-10T04:45:49.752Z,99876.16
2022-12-10T04:48:18.070Z,99878.25
2022-12-10T04:50:49.057Z,99871.25
2022-12-10T04:53:19.447Z,99870.59
2022-12-10T04:55:47.871Z,99871.69
2022-12-10T04:58:16.482Z,99882.72
2022-12-10T05:00:44.816Z,99881.94
2022-12-10T05:03:13.156Z,99878.91
2022-12-10T05:05:41.646Z,99871.88
2022-12-10T05:08:10.109Z,99868.69
2022-12-10T05:10:40.519Z,99864.53
2022-12-10T05:13:08.888Z,99874.41
2022-12-10T05:15:40.389Z,99878.72
2022-12-10T05:18:08.872Z,99889.28
2022-12-10T05:20:37.260Z,99891.03
2022-12-10T05:23:18.793Z,99871.72
2022-12-10T05:25:55.011Z,99888.31
2022-12-10T05:28:24.016Z,99884.81
2022-12-10T05:30:52.484Z,99883.22
2022-12-10T05:33:20.910Z,99878.13
2022-12-10T05:35:54.936Z,99891.84
2022-12-10T05:38:23.962Z,99900.31
2022-12-10T05:40:57.165Z,99892.50
2022-12-10T05:43:27.164Z,99897.28
2022-12-10T05:45:55.516Z,99898.09
2022-12-10T05:48:23.919Z,99887.53
2022-12-10T05:50:52.296Z,99896.19
2022-12-10T05:53:20.688Z,99905.75
2022-12-10T05:55:49.152Z,99909.41
2022-12-10T05:58:20.801Z,99911.53
2022-12-10T06:00:49.322Z,99892.66
2022-12-10T06:03:17.722Z,99909.28
2022-12-10T06:05:46.355Z,99901.78
2022-12-10T06:08:14.752Z,99912.31
2022-12-10T06:10:43.759Z,99908.47
2022-12-10T06:13:12.280Z,99908.81
2022-12-10T06:15:44.429Z,99919.16
2022-12-10T06:18:13.269Z,99911.03
2022-12-10T06:20:46.081Z,99926.06
2022-12-10T06:23:18.667Z,99916.94
2022-12-10T06:25:47.539Z,99929.72
2022-12-10T06:28:15.991Z,99921.59
2022-12-10T06:30:46.756Z,99924.28
2022-12-10T06:33:15.256Z,99922.84
2022-12-10T06:35:43.813Z,99927.81
2022-12-10T06:38:12.156Z,99928.13
2022-12-10T06:40:41.919Z,99944.13
2022-12-10T06:43:10.415Z,99944.72
2022-12-10T06:45:41.807Z,99947.28
2022-12-10T06:48:12.521Z,99949.06
2022-12-10T06:50:41.453Z,99942.97
2022-12-10T06:53:10.803Z,99946.94
2022-12-10T06:55:40.047Z,99950.81
2022-12-10T06:58:08.409Z,99951.13
2022-12-10T07:00:36.876Z,99950.66
2022-12-10T07:03:05.274Z,99951.13
2022-12-10T07:05:35.679Z,99957.50
2022-12-10T07:08:04.140Z,99954.28
2022-12-10T07:10:32.845Z,99963.75
2022-12-10T07:13:01.469Z,99960.06
2022-12-10T07:15:29.989Z,99964.69
2022-12-10T07:17:58.422Z,99965.66
2022-12-10T07:20:26.804Z,99971.06
2022-12-10T07:22:57.142Z,99967.06
2022-12-10T07:25:25.684Z,99961.97
2022-12-10T07:27:57.706Z,99968.06
2022-12-10T07:30:26.572Z,99967.41
2022-12-10T07:32:54.921Z,99969.19
2022-12-10T07:35:23.262Z,99976.69
2022-12-10T07:37:51.691Z,99967.09
2022-12-10T07:40:22.234Z,99977.31
2022-12-10T07:42:50.615Z,99981.50
2022-12-10T07:45:19.110Z,99987.72
2022-12-10T07:47:47.495Z,99986.41
2022-12-10T07:50:15.842Z,99986.56
2022-12-10T07:52:44.210Z,99978.78
2022-12-10T07:55:12.532Z,99985.97
2022-12-10T07:57:42.949Z,99979.72
2022-12-10T08:00:13.091Z,99989.13
2022-12-10T08:02:42.486Z,99989.78
2022-12-10T08:05:11.668Z,99995.22
2022-12-10T08:07:40.143Z,99996.47
2022-12-10T08:10:09.889Z,99997.59
2022-12-10T08:12:38.581Z,99994.88
2022-12-10T08:15:09.873Z,99986.72
2022-12-10T08:17:38.381Z,99990.09
2022-12-10T08:20:07.953Z,99991.06
2022-12-10T08:22:36.909Z,99993.31
2022-12-10T08:25:05.718Z,99990.59
2022-12-10T08:27:34.035Z,100004.16
2022-12-10T08:30:02.533Z,100003.06
2022-12-10T08:32:33.087Z,100001.75
2022-12-10T08:35:03.221Z,100004.31
2022-12-10T08:37:31.640Z,99998.72
2022-12-10T08:39:59.992Z,100005.56
2022-12-10T08:42:28.422Z,100008.78
2022-12-10T08:44:56.746Z,100001.91
2022-12-10T08:47:25.140Z,100012.47
2022-12-10T08:49:55.379Z,100017.25
2022-12-10T08:55:24.339Z,100012.31
2022-12-10T08:57:53.959Z,100004.31
2022-12-10T09:00:23.906Z,100010.56
2022-12-10T09:02:54.073Z,100015.84
2022-12-10T09:05:27.680Z,100010.25
2022-12-10T09:08:00.868Z,100016.31
2022-12-10T09:10:30.886Z,100010.06
2022-12-10T09:13:03.394Z,100013.94
2022-12-10T09:15:33.957Z,100019.00
2022-12-10T09:18:03.783Z,100020.47
2022-12-10T09:20:40.491Z,100025.25
2022-12-10T09:23:10.421Z,100029.72
2022-12-10T09:25:40.166Z,100026.25
2022-12-10T09:28:10.077Z,100027.97
2022-12-10T09:30:39.965Z,100023.19
2022-12-10T09:33:10.017Z,100019.81
2022-12-10T09:35:46.314Z,100031.47
2022-12-10T09:38:16.251Z,100026.56
2022-12-10T09:40:51.992Z,100032.28
2022-12-10T09:43:29.446Z,100038.03
2022-12-10T09:46:08.835Z,100025.38
2022-12-10T09:48:51.818Z,100028.09
2022-12-10T09:51:27.095Z,100030.16
2022-12-10T09:53:59.502Z,100027.59
2022-12-10T09:56:32.881Z,100029.84
2022-12-10T09:59:07.651Z,100031.63
2022-12-10T10:01:38.850Z,100036.75
2022-12-10T10:04:09.112Z,100027.97
2022-12-10T10:06:42.109Z,100030.69
2022-12-10T10:09:16.440Z,100032.75
2022-12-10T10:11:46.774Z,100029.56
2022-12-10T10:14:21.834Z,100032.59
2022-12-10T10:16:54.302Z,100023.50
2022-12-10T10:19:29.714Z,100037.25
2022-12-10T10:22:02.680Z,100030.53
2022-12-10T10:24:38.862Z,100025.09
2022-12-10T10:27:16.977Z,100024.63
2022-12-10T10:29:51.869Z,100034.53
2022-12-10T10:32:26.550Z,100034.84
2022-12-10T10:34:58.695Z,100035.16
2022-12-10T10:37:34.954Z,100035.81
2022-12-10T10:40:05.434Z,100036.94
2022-12-10T10:42:40.322Z,100035.00
2022-12-10T10:45:40.944Z,100036.31
2022-12-10T10:48:16.121Z,100036.47
2022-12-10T10:50:48.788Z,100030.38
2022-12-10T10:53:34.149Z,100031.03
2022-12-10T10:56:11.896Z,100031.69
2022-12-10T10:58:53.367Z,100032.94
2022-12-10T11:01:29.037Z,100035.50
2022-12-10T11:04:01.699Z,100035.00
2022-12-10T11:06:33.056Z,100033.91
2022-12-10T11:09:02.958Z,100029.28
2022-12-10T11:11:37.944Z,100014.88
2022-12-10T11:14:27.079Z,100023.03
2022-12-10T11:17:05.588Z,100033.56
2022-12-10T11:19:35.795Z,100038.38
2022-12-10T11:22:21.033Z,100036.44
2022-12-10T11:24:51.359Z,100035.50
2022-12-10T11:27:40.919Z,100034.19
2022-12-10T11:30:20.772Z,100032.28
2022-12-10T11:33:14.361Z,100036.13
2022-12-10T11:35:54.740Z,100033.38
2022-12-10T11:38:28.735Z,100036.59
2022-12-10T11:41:06.125Z,100033.41
2022-12-10T11:43:48.931Z,100035.50
2022-12-10T11:46:46.730Z,100032.44
2022-12-10T11:49:31.299Z,100033.41
2022-12-10T11:52:09.304Z,100030.53
2022-12-10T11:54:52.662Z,100025.22
2022-12-10T11:57:34.113Z,100031.78
2022-12-10T12:00:06.479Z,100021.22
2022-12-10T12:03:00.801Z,100026.84
2022-12-10T12:05:45.050Z,100037.06
2022-12-10T12:08:22.974Z,100018.34
2022-12-10T12:11:04.593Z,100041.53
2022-12-10T12:13:40.003Z,100039.31
2022-12-10T12:16:15.531Z,100039.47
2022-12-10T12:18:53.956Z,100036.09
2022-12-10T12:21:26.439Z,100038.81
2022-12-10T12:24:04.463Z,100048.44
2022-12-10T12:26:38.892Z,100044.25
2022-12-10T12:29:19.861Z,100044.09
2022-12-10T12:31:58.110Z,100055.75
2022-12-10T12:34:36.196Z,100049.81
2022-12-10T12:37:12.466Z,100047.94
2022-12-10T12:39:51.062Z,100048.88
2022-12-10T12:42:28.599Z,100046.16
2022-12-10T12:45:05.133Z,100053.78
2022-12-10T12:47:42.834Z,100030.81
2022-12-10T12:50:28.346Z,100043.28
2022-12-10T12:53:03.347Z,100048.41
2022-12-10T12:55:37.681Z,100043.59
2022-12-10T12:58:20.176Z,100038.19
2022-12-10T13:00:54.502Z,100032.13
2022-12-10T13:03:36.707Z,100044.41
2022-12-10T13:06:22.998Z,100047.94
2022-12-10T13:09:00.787Z,100043.47
2022-12-10T13:11:39.404Z,100051.16
2022-12-10T13:14:31.597Z,100040.28
2022-12-10T13:17:30.597Z,100047.28
2022-12-10T13:20:30.082Z,100051.91
2022-12-10T13:23:02.635Z,100049.03
2022-12-10T13:26:00.441Z,100047.31
2022-12-10T13:28:34.338Z,100057.38
2022-12-10T13:31:20.578Z,100055.13
2022-12-10T13:33:54.269Z,100052.41
2022-12-10T13:36:25.972Z,100056.38
2022-12-10T13:39:01.779Z,100051.75
2022-12-10T13:41:47.135Z,100062.63
2022-12-10T13:44:38.932Z,100062.97
2022-12-10T13:47:28.038Z,100068.72
2022-12-10T13:50:00.601Z,100063.41
2022-12-10T13:52:36.864Z,100057.81
2022-12-10T13:55:29.677Z,100063.41
2022-12-10T13:58:27.827Z,100064.88
2022-12-10T14:01:03.989Z,100069.03
2022-12-10T14:03:52.519Z,100069.50
2022-12-10T14:06:24.178Z,100066.91
2022-12-10T14:09:00.866Z,100077.25
2022-12-10T14:11:37.658Z,100089.72
2022-12-10T14:14:17.152Z,100084.75
2022-12-10T14:16:47.565Z,100085.09
2022-12-10T14:19:20.381Z,100088.13
2022-12-10T14:21:50.998Z,100088.94
2022-12-10T14:24:33.228Z,100090.97
2022-12-10T14:27:05.940Z,100097.75
2022-12-10T14:29:38.362Z,100098.97
2022-12-10T14:32:08.953Z,100092.72
2022-12-10T14:34:38.734Z,100098.78
2022-12-10T14:37:08.687Z,100098.94
2022-12-10T14:39:42.224Z,100100.69
2022-12-10T14:42:20.587Z,100108.50
2022-12-10T14:45:00.429Z,100106.13
2022-12-10T14:47:30.571Z,100110.91
2022-12-10T14:50:00.179Z,100105.34
2022-12-10T14:52:37.242Z,100106.81
2022-12-10T14:55:08.044Z,100107.09
2022-12-10T14:57:45.916Z,100112.22
2022-12-10T15:00:22.339Z,100109.19
2022-12-10T15:02:57.985Z,100120.69
2022-12-10T15:05:30.770Z,100117.19
2022-12-10T15:08:03.829Z,100113.81
2022-12-10T15:10:38.314Z,100124.72
2022-12-10T15:13:09.440Z,100126.63
2022-12-10T15:15:44.213Z,100126.31
2022-12-10T15:18:18.986Z,100121.00
2022-12-10T15:20:51.654Z,100122.16
2022-12-10T15:23:26.659Z,100122.81
2022-12-10T15:26:02.961Z,100119.28
2022-12-10T15:28:34.521Z,100128.41
2022-12-10T15:31:19.942Z,100132.81
2022-12-10T15:33:52.964Z,100128.97
2022-12-10T15:36:31.261Z,100131.53
2022-12-10T15:39:06.025Z,100137.13
2022-12-10T15:41:47.130Z,100135.81
2022-12-10T15:44:33.310Z,100136.00
2022-12-10T15:47:16.377Z,100136.16
2022-12-10T15:49:46.046Z,100142.97
2022-12-10T15:52:16.947Z,100140.75
2022-12-10T15:54:48.469Z,100145.66
2022-12-10T15:57:19.832Z,100137.16
2022-12-10T15:59:51.814Z,100135.88
2022-12-10T16:02:33.439Z,100142.91
2022-12-10T16:05:03.318Z,100141.88
2022-12-10T16:07:33.688Z,100133.56
2022-12-10T16:10:03.460Z,100139.19
2022-12-10T16:12:38.711Z,100140.47
2022-12-10T16:15:14.463Z,100135.22
2022-12-10T16:17:46.708Z,100134.38
2022-12-10T16:20:26.949Z,100132.47
2022-12-10T16:22:57.257Z,100134.09
2022-12-10T16:25:29.942Z,100128.44
2022-12-10T16:28:03.646Z,100126.69
2022-12-10T16:30:41.204Z,100131.97
2022-12-10T16:33:20.790Z,100126.81
2022-12-10T16:35:52.143Z,100133.50
2022-12-10T16:38:23.277Z,100136.09
2022-12-10T16:40:53.579Z,100135.94
2022-12-10T16:43:26.182Z,100135.81
2022-12-10T16:45:57.118Z,100135.63
2022-12-10T16:48:30.174Z,100134.22
2022-12-10T16:51:07.864Z,100134.50
2022-12-10T16:53:38.601Z,100125.09
2022-12-10T16:56:09.077Z,100143.81
2022-12-10T16:58:39.113Z,100142.16
2022-12-10T17:01:20.826Z,100142.97
2022-12-10T17:03:54.522Z,100138.38
2022-12-10T17:06:25.596Z,100147.16
2022-12-10T17:08:55.811Z,100142.81
2022-12-10T17:11:41.258Z,100143.16
2022-12-10T17:14:23.452Z,100143.91
2022-12-10T17:16:56.803Z,100155.88
2022-12-10T17:19:30.915Z,100156.06
2022-12-10T17:22:01.072Z,100142.06
2022-12-10T17:24:31.479Z,100151.22
2022-12-10T17:27:07.511Z,100157.91
2022-12-10T17:29:40.005Z,100147.53
2022-12-10T17:32:15.571Z,100144.66
2022-12-10T17:34:47.870Z,100150.09
2022-12-10T17:37:21.255Z,100142.63
2022-12-10T17:39:50.945Z,100147.41
2022-12-10T17:42:20.586Z,100152.41
2022-12-10T17:44:50.144Z,100153.66
2022-12-10T17:47:24.171Z,100159.31
2022-12-10T17:49:56.423Z,100154.44
2022-12-10T17:52:27.205Z,100158.22
2022-12-10T17:54:56.876Z,100155.69
2022-12-10T17:57:27.758Z,100151.44
2022-12-10T17:59:57.387Z,100146.97
2022-12-10T18:02:28.048Z,100154.31
2022-12-10T18:05:01.080Z,100140.50
2022-12-10T18:07:30.854Z,100154.44
2022-12-10T18:10:02.305Z,100158.78
2022-12-10T18:12:31.863Z,100158.59
2022-12-10T18:15:01.681Z,100152.97
2022-12-10T18:17:31.298Z,100152.41
2022-12-10T18:20:03.561Z,100152.09
2022-12-10T18:22:33.462Z,100159.25
2022-12-10T18:25:02.982Z,100164.66
2022-12-10T18:27:32.957Z,100154.31
2022-12-10T18:30:02.696Z,100158.81
2022-12-10T18:32:32.454Z,100160.25
2022-12-10T18:35:04.673Z,100164.81
2022-12-10T18:37:34.316Z,100156.13
2022-12-10T18:40:03.911Z,100163.16
2022-12-10T18:42:34.227Z,100166.53
2022-12-10T18:45:04.004Z,100164.75
2022-12-10T18:47:33.678Z,100170.56
2022-12-10T18:50:06.304Z,100170.72
2022-12-10T18:52:36.071Z,100167.66
2022-12-10T18:55:05.713Z,100172.63
2022-12-10T18:57:38.380Z,100168.66
2022-12-10T19:00:17.618Z,100172.63
2022-12-10T19:02:48.365Z,100181.88
2022-12-10T19:05:21.817Z,100178.25
2022-12-10T19:07:51.658Z,100189.22
2022-12-10T19:10:25.120Z,100181.28
2022-12-10T19:12:55.522Z,100181.59
2022-12-10T19:15:25.491Z,100180.47
2022-12-10T19:17:55.262Z,100184.16
2022-12-10T19:20:29.275Z,100176.53
2022-12-10T19:22:59.162Z,100177.19
2022-12-10T19:25:28.975Z,100180.16
2022-12-10T19:27:59.189Z,100179.69
2022-12-10T19:30:30.266Z,100174.38
2022-12-10T19:33:00.138Z,100183.66
2022-12-10T19:35:32.533Z,100186.88
2022-12-10T19:38:02.360Z,100180.34
2022-12-10T19:40:34.294Z,100181.97
2022-12-10T19:43:04.286Z,100186.50
2022-12-10T19:45:35.010Z,100183.78
2022-12-10T19:48:04.898Z,100182.69
2022-12-10T19:50:38.922Z,100183.31
2022-12-10T19:53:09.054Z,100177.91
2022-12-10T19:55:39.006Z,100184.59
2022-12-10T19:58:09.708Z,100195.28
2022-12-10T20:00:39.426Z,100186.16
2022-12-10T20:03:08.990Z,100181.50
2022-12-10T20:05:41.744Z,100167.72
2022-12-10T20:08:13.096Z,100183.44
2022-12-10T20:10:43.068Z,100174.22
2022-12-10T20:13:12.753Z,100172.63
2022-12-10T20:15:47.062Z,100175.59
2022-12-10T20:18:17.447Z,100181.59
2022-12-10T20:20:50.542Z,100181.59
2022-12-10T20:23:20.248Z,100172.63
2022-12-10T20:25:52.162Z,100175.53
2022-12-10T20:28:22.287Z,100184.81
2022-12-10T20:30:53.226Z,100182.81
2022-12-10T20:33:45.345Z,100182.47
2022-12-10T20:36:19.047Z,100184.38
2022-12-10T20:38:49.091Z,100190.72
2022-12-10T20:41:20.088Z,100185.31
2022-12-10T20:43:51.466Z,100186.84
2022-12-10T20:46:26.035Z,100182.59
2022-12-10T20:48:56.126Z,100183.69
2022-12-10T20:51:28.419Z,100182.09
2022-12-10T20:53:58.316Z,100186.41
2022-12-10T20:56:29.026Z,100177.03
2022-12-10T20:58:59.582Z,100183.47
2022-12-10T21:01:29.285Z,100175.06
2022-12-10T21:03:59.826Z,100180.56
2022-12-10T21:06:35.546Z,100179.00
2022-12-10T21:09:06.336Z,100183.44
2022-12-10T21:11:36.073Z,100172.03
2022-12-10T21:14:10.096Z,100182.59
2022-12-10T21:16:53.545Z,100175.06
2022-12-10T21:19:23.117Z,100185.59
2022-12-10T21:21:55.282Z,100185.91
2022-12-10T21:24:24.959Z,100185.31
2022-12-10T21:26:54.609Z,100183.69
2022-12-10T21:29:25.719Z,100192.75
2022-12-10T21:31:55.581Z,100181.66
2022-12-10T21:34:25.247Z,100181.38
2022-12-10T21:36:57.405Z,100183.44
2022-12-10T21:39:29.893Z,100171.50
2022-12-10T21:42:12.149Z,100173.22
2022-12-10T21:44:42.170Z,100175.78
2022-12-10T21:47:13.544Z,100168.16
2022-12-10T21:49:43.620Z,100174.34
2022-12-10T21:52:16.594Z,100162.38
2022-12-10T21:54:47.558Z,100165.44
2022-12-10T21:57:17.813Z,100169.25
2022-12-10T21:59:47.672Z,100156.50
2022-12-10T22:02:17.364Z,100160.31
2022-12-10T22:04:46.949Z,100164.16
2022-12-10T22:07:19.301Z,100170.97
2022-12-10T22:09:49.026Z,100149.28
2022-12-10T22:12:18.935Z,100163.22
2022-12-10T22:14:48.484Z,100161.09
2022-12-10T22:17:18.089Z,100163.53
2022-12-10T22:19:47.677Z,100152.75
2022-12-10T22:22:20.196Z,100154.41
2022-12-10T22:24:49.887Z,100149.53
2022-12-10T22:27:19.676Z,100151.06
2022-12-10T22:29:49.573Z,100147.53
2022-12-10T22:32:19.322Z,100160.00
2022-12-10T22:34:49.323Z,100149.94
2022-12-10T22:37:21.873Z,100155.50
2022-12-10T22:39:51.908Z,100155.63
2022-12-10T22:42:21.469Z,100148.94
2022-12-10T22:44:51.201Z,100143.81
2022-12-10T22:47:20.759Z,100144.59
2022-12-10T22:49:50.372Z,100148.47
2022-12-10T22:52:22.670Z,100148.44
2022-12-10T22:54:52.976Z,100154.84
2022-12-10T22:57:22.716Z,100152.38
2022-12-10T22:59:52.554Z,100147.66
2022-12-10T23:02:22.440Z,100142.03
2022-12-10T23:04:52.276Z,100142.38
2022-12-10T23:07:24.544Z,100138.00
2022-12-10T23:09:54.194Z,100129.69
2022-12-10T23:12:36.289Z,100139.63
2022-12-10T23:15:06.214Z,100144.72
2022-12-10T23:17:35.840Z,100141.91
2022-12-10T23:20:05.702Z,100140.91
2022-12-10T23:22:38.775Z,100139.88
2022-12-10T23:25:09.435Z,100140.28
2022-12-10T23:27:39.496Z,100148.81
2022-12-10T23:30:11.709Z,100143.84
2022-12-10T23:32:41.847Z,100132.53
2022-12-10T23:35:12.976Z,100133.97
2022-12-10T23:37:45.812Z,100135.72
2022-12-10T23:40:16.042Z,100127.41
2022-12-10T23:42:45.794Z,100135.59
2022-12-10T23:45:20.272Z,100130.97
2022-12-10T23:47:49.989Z,100132.69
2022-12-10T23:50:19.846Z,100130.16
2022-12-10T23:52:52.333Z,100131.59
2022-12-10T23:55:21.965Z,100135.03
2022-12-10T23:57:51.560Z,100143.38
